CheckWX is a tool to help pilots better visualize weather data.  It is not intended as a substitute for an official pre-flight weather briefing.

01:07:19 UTC

KAPY METAR
Zapata County Airport
Zapata, Texas, USA
Current

12 mins ago

KAPY 240055Z AUTO 00000KT 10SM CLR 21/00 A3002 RMK AO2 T02160000
Observed
Feb-24 @ 00:55 UTC
Visibility
10 SM
Flight Rules
VFR
Cloud Levels
  • Clear skies
Temperature
22°C / 72°F
Dewpoint
C / 32°F
Humidity
23%
Altimeter
30.02" Hg
Pressure
1016.62 hPa
Previous

32 mins ago

KAPY 240035Z AUTO 34003KT 10SM CLR 22/00 A3001 RMK AO2 T02241001
Observed
Feb-24 @ 00:35 UTC
Wind
  • 340° at 3 KTS
Visibility
10 SM
Flight Rules
VFR
Cloud Levels
  • Clear skies
Temperature
22°C / 72°F
Dewpoint
-0°C / 32°F
Humidity
23%
Altimeter
30.01" Hg
Pressure
1016.22 hPa
Previous

52 mins ago

KAPY 240015Z AUTO 35005KT 10SM CLR 23/00 A3000 RMK AO2 T02351005
Observed
Feb-24 @ 00:15 UTC
Wind
  • 350° at 5 KTS
Visibility
10 SM
Flight Rules
VFR
Cloud Levels
  • Clear skies
Temperature
24°C / 75°F
Dewpoint
-1°C / 30°F
Humidity
19%
Altimeter
30" Hg
Pressure
1015.92 hPa